createdAt,value
2017-11-11T00:00:22.988Z,7.20
2017-11-11T00:02:51.808Z,7.20
2017-11-11T00:05:20.139Z,7.20
2017-11-11T00:07:47.706Z,7.20
2017-11-11T00:10:15.296Z,7.20
2017-11-11T00:12:42.840Z,7.20
2017-11-11T00:15:10.400Z,7.20
2017-11-11T00:17:37.979Z,7.10
2017-11-11T00:20:05.533Z,7.10
2017-11-11T00:22:33.072Z,7.20
2017-11-11T00:25:00.666Z,7.20
2017-11-11T00:27:28.995Z,7.20
2017-11-11T00:29:56.552Z,7.20
2017-11-11T00:32:24.125Z,7.20
2017-11-11T00:34:51.677Z,7.20
2017-11-11T00:37:19.256Z,7.20
2017-11-11T00:39:46.820Z,7.20
2017-11-11T00:42:14.375Z,7.20
2017-11-11T00:44:41.980Z,7.20
2017-11-11T00:47:09.529Z,7.20
2017-11-11T00:49:37.851Z,7.10
2017-11-11T00:52:05.435Z,7.10
2017-11-11T00:54:32.985Z,7.10
2017-11-11T00:57:00.553Z,7.10
2017-11-11T00:59:28.121Z,7.10
2017-11-11T01:01:55.666Z,7.10
2017-11-11T01:04:23.248Z,7.10
2017-11-11T01:06:50.807Z,7.10
2017-11-11T01:09:18.386Z,7.10
2017-11-11T01:11:46.724Z,7.10
2017-11-11T01:14:14.264Z,7.10
2017-11-11T01:16:42.498Z,7.10
2017-11-11T01:19:10.849Z,7.20
2017-11-11T01:21:38.403Z,7.20
2017-11-11T01:24:06.079Z,7.20
2017-11-11T01:26:33.686Z,7.20
2017-11-11T01:29:01.241Z,7.20
2017-11-11T01:31:28.780Z,7.20
2017-11-11T01:33:57.136Z,7.20
2017-11-11T01:36:24.687Z,7.20
2017-11-11T01:38:52.247Z,7.20
2017-11-11T01:41:19.852Z,7.10
2017-11-11T01:43:47.393Z,7.20
2017-11-11T01:46:15.709Z,7.20
2017-11-11T01:48:43.311Z,7.20
2017-11-11T01:51:10.868Z,7.20
2017-11-11T01:53:38.417Z,7.20
2017-11-11T01:56:06.016Z,7.20
2017-11-11T01:58:33.569Z,7.20
2017-11-11T02:01:01.169Z,7.20
2017-11-11T02:03:28.781Z,7.10
2017-11-11T02:05:57.098Z,7.10
2017-11-11T02:08:24.690Z,7.10
2017-11-11T02:10:52.318Z,7.10
2017-11-11T02:13:19.875Z,7.10
2017-11-11T02:15:47.456Z,7.10
2017-11-11T02:18:15.058Z,7.10
2017-11-11T02:20:43.458Z,7.10
2017-11-11T02:23:11.049Z,7.10
2017-11-11T02:25:38.661Z,7.10
2017-11-11T02:28:07.006Z,7.10
2017-11-11T02:30:34.562Z,7.10
2017-11-11T02:33:02.174Z,7.10
2017-11-11T02:35:29.762Z,7.10
2017-11-11T02:37:57.340Z,7.10
2017-11-11T02:40:24.950Z,7.10
2017-11-11T02:42:52.532Z,7.00
2017-11-11T02:45:20.169Z,7.00
2017-11-11T02:47:48.527Z,7.00
2017-11-11T02:50:16.124Z,7.00
2017-11-11T02:52:43.718Z,7.00
2017-11-11T02:55:11.335Z,7.00
2017-11-11T02:57:38.919Z,7.00
2017-11-11T03:00:06.483Z,7.00
2017-11-11T03:02:34.027Z,7.00
2017-11-11T03:05:01.593Z,6.90
2017-11-11T03:07:29.155Z,6.90
2017-11-11T03:09:56.734Z,6.90
2017-11-11T03:12:24.309Z,6.90
2017-11-11T03:14:51.862Z,6.90
2017-11-11T03:17:19.442Z,6.90
2017-11-11T03:19:46.988Z,6.80
2017-11-11T03:22:14.553Z,6.80
2017-11-11T03:24:45.961Z,6.80
2017-11-11T03:27:13.539Z,6.70
2017-11-11T03:29:41.138Z,6.70
2017-11-11T03:32:09.451Z,6.60
2017-11-11T03:34:37.025Z,6.60
2017-11-11T03:37:05.626Z,6.60
2017-11-11T03:39:33.178Z,6.60
2017-11-11T03:42:00.761Z,6.50
2017-11-11T03:44:28.321Z,6.50
2017-11-11T03:46:55.874Z,6.50
2017-11-11T03:49:23.450Z,6.50
2017-11-11T03:51:51.001Z,6.40
2017-11-11T03:54:18.573Z,6.40
2017-11-11T03:56:46.132Z,6.40
2017-11-11T03:59:13.692Z,6.40
2017-11-11T04:01:42.066Z,6.30
2017-11-11T04:04:09.620Z,6.40
2017-11-11T04:06:37.167Z,6.30
2017-11-11T04:09:04.782Z,6.30
2017-11-11T04:11:32.369Z,6.30
2017-11-11T04:13:59.959Z,6.20
2017-11-11T04:16:27.503Z,6.10
2017-11-11T04:18:55.061Z,6.10
2017-11-11T04:21:22.632Z,6.10
2017-11-11T04:23:50.191Z,6.10
2017-11-11T04:26:17.771Z,6.10
2017-11-11T04:28:46.084Z,6.00
2017-11-11T04:31:13.663Z,6.00
2017-11-11T04:33:41.229Z,6.00
2017-11-11T04:36:08.772Z,6.00
2017-11-11T04:38:36.365Z,6.00
2017-11-11T04:41:03.917Z,6.00
2017-11-11T04:43:31.487Z,6.00
2017-11-11T04:45:59.066Z,6.00
2017-11-11T04:48:27.377Z,5.90
2017-11-11T04:50:54.925Z,5.90
2017-11-11T04:53:22.514Z,5.90
2017-11-11T04:55:50.061Z,5.90
2017-11-11T04:58:17.604Z,5.90
2017-11-11T05:00:45.298Z,5.90
2017-11-11T05:03:12.853Z,5.90
2017-11-11T05:05:40.419Z,5.90
2017-11-11T05:08:07.998Z,5.80
2017-11-11T05:10:35.544Z,5.90
2017-11-11T05:13:03.117Z,5.80
2017-11-11T05:15:30.687Z,5.80
2017-11-11T05:17:58.247Z,5.80
2017-11-11T05:20:25.837Z,5.80
2017-11-11T05:22:54.148Z,5.70
2017-11-11T05:25:21.749Z,5.70
2017-11-11T05:27:49.308Z,5.70
2017-11-11T05:30:16.870Z,5.70
2017-11-11T05:32:44.492Z,5.70
2017-11-11T05:35:12.032Z,5.70
2017-11-11T05:37:39.650Z,5.60
2017-11-11T05:40:07.203Z,5.60
2017-11-11T05:42:34.747Z,5.60
2017-11-11T05:45:02.337Z,5.60
2017-11-11T05:47:30.649Z,5.60
2017-11-11T05:49:58.225Z,5.60
2017-11-11T05:52:25.841Z,5.60
2017-11-11T05:54:54.146Z,5.60
2017-11-11T05:57:21.694Z,5.60
2017-11-11T05:59:49.286Z,5.60
2017-11-11T06:02:16.830Z,5.60
2017-11-11T06:04:44.368Z,5.60
2017-11-11T06:07:12.709Z,5.60
2017-11-11T06:09:40.258Z,5.60
2017-11-11T06:12:07.829Z,5.60
2017-11-11T06:14:35.398Z,5.60
2017-11-11T06:17:02.974Z,5.60
2017-11-11T06:19:31.329Z,5.60
2017-11-11T06:21:58.892Z,5.60
2017-11-11T06:24:26.431Z,5.60
2017-11-11T06:26:54.004Z,5.60
2017-11-11T06:29:21.554Z,5.60
2017-11-11T06:31:49.110Z,5.60
2017-11-11T06:34:16.691Z,5.50
2017-11-11T06:36:44.229Z,5.50
2017-11-11T06:39:11.781Z,5.50
2017-11-11T06:41:39.363Z,5.50
2017-11-11T06:44:06.901Z,5.50
2017-11-11T06:46:34.455Z,5.50
2017-11-11T06:49:02.043Z,5.50
2017-11-11T06:51:29.606Z,5.50
2017-11-11T06:53:57.148Z,5.50
2017-11-11T06:56:24.726Z,5.50
2017-11-11T06:58:52.270Z,5.50
2017-11-11T07:01:19.870Z,5.50
2017-11-11T07:03:48.195Z,5.50
2017-11-11T07:06:15.759Z,5.50
2017-11-11T07:08:43.351Z,5.40
2017-11-11T07:11:11.685Z,5.40
2017-11-11T07:13:39.225Z,5.40
2017-11-11T07:16:06.827Z,5.40
2017-11-11T07:18:34.389Z,5.40
2017-11-11T07:21:01.943Z,5.40
2017-11-11T07:23:29.531Z,5.40
2017-11-11T07:25:58.065Z,5.40
2017-11-11T07:28:25.634Z,5.50
2017-11-11T07:30:53.193Z,5.50
2017-11-11T07:33:20.751Z,5.40
2017-11-11T07:35:48.324Z,5.50
2017-11-11T07:38:15.885Z,5.50
2017-11-11T07:40:43.525Z,5.50
2017-11-11T07:43:11.100Z,5.50
2017-11-11T07:45:38.650Z,5.50
2017-11-11T07:48:07.006Z,5.50
2017-11-11T07:50:34.553Z,5.50
2017-11-11T07:53:02.111Z,5.50
2017-11-11T07:55:29.700Z,5.50
2017-11-11T07:57:57.251Z,5.60
2017-11-11T08:00:24.830Z,5.60
2017-11-11T08:02:52.388Z,5.50
2017-11-11T08:05:19.938Z,5.50
2017-11-11T08:07:47.521Z,5.60
2017-11-11T08:10:15.082Z,5.60
2017-11-11T08:12:42.661Z,5.60
2017-11-11T08:15:11.017Z,5.70
2017-11-11T08:17:39.406Z,5.70
2017-11-11T08:20:06.989Z,5.70
2017-11-11T08:22:35.319Z,5.80
2017-11-11T08:25:02.930Z,5.80
2017-11-11T08:27:31.276Z,5.80
2017-11-11T08:29:58.840Z,5.80
2017-11-11T08:32:26.436Z,5.80
2017-11-11T08:34:54.765Z,5.90
2017-11-11T08:37:22.335Z,5.90
2017-11-11T08:39:49.938Z,5.90
2017-11-11T08:42:17.530Z,5.90
2017-11-11T08:44:45.110Z,6.00
2017-11-11T08:47:12.689Z,6.00
2017-11-11T08:49:40.267Z,6.00
2017-11-11T08:52:08.637Z,6.00
2017-11-11T08:54:36.961Z,6.00
2017-11-11T08:57:04.528Z,6.00
2017-11-11T08:59:32.096Z,6.00
2017-11-11T09:01:59.642Z,5.90
2017-11-11T09:04:27.233Z,6.00
2017-11-11T09:06:54.785Z,5.90
2017-11-11T09:09:22.350Z,5.90
2017-11-11T09:11:49.955Z,5.90
2017-11-11T09:14:17.497Z,5.90
2017-11-11T09:16:45.799Z,5.90
2017-11-11T09:19:13.393Z,5.90
2017-11-11T09:21:40.928Z,5.90
2017-11-11T09:24:08.485Z,5.90
2017-11-11T09:26:36.059Z,5.90
2017-11-11T09:29:03.606Z,5.90
2017-11-11T09:31:31.223Z,5.90
2017-11-11T09:33:59.545Z,5.80
2017-11-11T09:36:27.101Z,5.90
2017-11-11T09:38:54.683Z,5.90
2017-11-11T09:41:22.232Z,5.90
2017-11-11T09:43:49.813Z,5.90
2017-11-11T09:46:17.379Z,5.90
2017-11-11T09:48:44.924Z,5.90
2017-11-11T09:51:12.504Z,5.90
2017-11-11T09:53:40.048Z,5.90
2017-11-11T09:56:07.602Z,5.90
2017-11-11T09:58:35.197Z,5.90
2017-11-11T10:01:03.536Z,5.90
2017-11-11T10:03:31.103Z,5.90
2017-11-11T10:05:58.682Z,5.90
2017-11-11T10:08:26.239Z,5.90
2017-11-11T10:10:53.870Z,5.90
2017-11-11T10:13:21.531Z,6.00
2017-11-11T10:15:49.102Z,6.00
2017-11-11T10:18:16.641Z,6.00
2017-11-11T10:20:44.226Z,6.10
2017-11-11T10:23:12.680Z,6.10
2017-11-11T10:25:40.268Z,6.10
2017-11-11T10:28:07.863Z,6.10
2017-11-11T10:30:36.197Z,6.20
2017-11-11T10:33:03.755Z,6.10
2017-11-11T10:35:31.314Z,6.20
2017-11-11T10:37:58.880Z,6.20
2017-11-11T10:40:26.424Z,6.20
2017-11-11T10:42:53.982Z,6.20
2017-11-11T10:45:22.558Z,6.20
2017-11-11T10:47:50.130Z,6.30
2017-11-11T10:50:17.676Z,6.30
2017-11-11T10:52:45.254Z,6.30
2017-11-11T10:55:12.821Z,6.30
2017-11-11T10:57:40.414Z,6.30
2017-11-11T11:00:08.766Z,6.30
2017-11-11T11:02:36.406Z,6.30
2017-11-11T11:05:03.986Z,6.30
2017-11-11T11:07:31.690Z,6.40
2017-11-11T11:10:00.069Z,6.40
2017-11-11T11:12:28.388Z,6.40
2017-11-11T11:14:55.969Z,6.40
2017-11-11T11:17:23.545Z,6.40
2017-11-11T11:19:51.095Z,6.50
2017-11-11T11:22:18.669Z,6.50
2017-11-11T11:24:47.001Z,6.50
2017-11-11T11:27:14.582Z,6.50
2017-11-11T11:29:42.178Z,6.50
2017-11-11T11:32:10.517Z,6.60
2017-11-11T11:34:38.113Z,6.50
2017-11-11T11:37:06.448Z,6.60
2017-11-11T11:39:34.024Z,6.60
2017-11-11T11:42:01.609Z,6.60
2017-11-11T11:44:29.172Z,6.60
2017-11-11T11:46:57.482Z,6.60
2017-11-11T11:49:25.049Z,6.60
2017-11-11T11:51:52.612Z,6.70
2017-11-11T11:54:20.181Z,6.70
2017-11-11T11:56:47.736Z,6.70
2017-11-11T11:59:15.281Z,6.70
2017-11-11T12:01:42.874Z,6.70
2017-11-11T12:04:10.437Z,6.70
2017-11-11T12:06:38.003Z,6.70
2017-11-11T12:09:05.586Z,6.80
2017-11-11T12:11:33.915Z,6.80
2017-11-11T12:14:01.458Z,6.80
2017-11-11T12:16:29.043Z,6.80
2017-11-11T12:18:56.615Z,6.80
2017-11-11T12:21:24.167Z,6.80
2017-11-11T12:23:51.752Z,6.80
2017-11-11T12:26:20.079Z,6.80
2017-11-11T12:28:47.648Z,6.80
2017-11-11T12:31:15.222Z,6.90
2017-11-11T12:33:42.782Z,6.90
2017-11-11T12:36:10.378Z,6.90
2017-11-11T12:38:38.700Z,6.80
2017-11-11T12:41:06.280Z,6.80
2017-11-11T12:43:33.835Z,6.90
2017-11-11T12:46:01.406Z,6.80
2017-11-11T12:48:29.003Z,6.80
2017-11-11T12:50:56.575Z,6.90
2017-11-11T12:53:24.138Z,6.80
2017-11-11T12:55:51.822Z,6.80
2017-11-11T12:58:19.381Z,6.80
2017-11-11T13:00:46.972Z,6.80
2017-11-11T13:03:14.546Z,6.80
2017-11-11T13:05:42.849Z,6.80
2017-11-11T13:08:10.410Z,6.80
2017-11-11T13:10:37.988Z,6.80
2017-11-11T13:13:05.546Z,6.80
2017-11-11T13:15:33.146Z,6.80
2017-11-11T13:18:00.687Z,6.80
2017-11-11T13:20:28.246Z,6.80
2017-11-11T13:22:56.426Z,6.80
2017-11-11T13:25:24.002Z,6.80
2017-11-11T13:27:51.589Z,6.80
2017-11-11T13:30:19.930Z,6.80
2017-11-11T13:32:47.512Z,6.80
2017-11-11T13:35:15.961Z,6.80
2017-11-11T13:37:43.514Z,6.80
2017-11-11T13:40:11.094Z,6.80
2017-11-11T13:42:38.678Z,6.80
2017-11-11T13:45:07.015Z,6.80
2017-11-11T13:47:34.587Z,6.80
2017-11-11T13:50:02.221Z,6.70
2017-11-11T13:52:29.850Z,6.70
2017-11-11T13:54:57.403Z,6.70
2017-11-11T13:57:25.755Z,6.70
2017-11-11T13:59:53.305Z,6.70
2017-11-11T14:02:20.843Z,6.70
2017-11-11T14:04:49.180Z,6.70
2017-11-11T14:07:17.499Z,6.70
2017-11-11T14:09:45.066Z,6.70
2017-11-11T14:12:13.422Z,6.70
2017-11-11T14:14:40.999Z,6.60
2017-11-11T14:17:08.558Z,6.70
2017-11-11T14:19:36.161Z,6.70
2017-11-11T14:22:04.471Z,6.70
2017-11-11T14:24:32.026Z,6.60
2017-11-11T14:26:59.616Z,6.70
2017-11-11T14:29:27.169Z,6.60
2017-11-11T14:31:54.768Z,6.70
2017-11-11T14:34:22.341Z,6.60
2017-11-11T14:36:50.645Z,6.60
2017-11-11T14:39:18.205Z,6.60
2017-11-11T14:41:45.777Z,6.60
2017-11-11T14:44:13.354Z,6.60
2017-11-11T14:46:40.935Z,6.60
2017-11-11T14:49:08.482Z,6.60
2017-11-11T14:51:38.018Z,6.60
2017-11-11T14:54:05.598Z,6.60
2017-11-11T14:56:33.160Z,6.60
2017-11-11T14:59:00.734Z,6.60
2017-11-11T15:01:28.284Z,6.60
2017-11-11T15:03:55.866Z,6.60
2017-11-11T15:06:23.404Z,6.60
2017-11-11T15:08:50.995Z,6.60
2017-11-11T15:11:18.576Z,6.60
2017-11-11T15:13:46.145Z,6.60
2017-11-11T15:16:14.496Z,6.60
2017-11-11T15:18:42.107Z,6.60
2017-11-11T15:21:10.486Z,6.60
2017-11-11T15:23:38.859Z,6.60
2017-11-11T15:26:07.163Z,6.60
2017-11-11T15:28:34.713Z,6.60
2017-11-11T15:31:02.326Z,6.60
2017-11-11T15:33:29.865Z,6.60
2017-11-11T15:35:57.409Z,6.60
2017-11-11T15:38:24.984Z,6.60
2017-11-11T15:40:53.804Z,6.60
2017-11-11T15:43:25.164Z,6.60
2017-11-11T15:45:52.817Z,6.50
2017-11-11T15:48:20.356Z,6.50
2017-11-11T15:50:47.926Z,6.50
2017-11-11T15:53:15.527Z,6.50
2017-11-11T15:55:43.089Z,6.50
2017-11-11T15:58:10.650Z,6.50
2017-11-11T16:00:38.416Z,6.50
2017-11-11T16:03:05.996Z,6.50
2017-11-11T16:05:33.561Z,6.50
2017-11-11T16:08:01.178Z,6.50
2017-11-11T16:10:29.529Z,6.50
2017-11-11T16:12:57.099Z,6.50
2017-11-11T16:15:25.475Z,6.50
2017-11-11T16:17:53.036Z,6.50
2017-11-11T16:20:20.591Z,6.50
2017-11-11T16:22:48.177Z,6.50
2017-11-11T16:25:16.508Z,6.50
2017-11-11T16:27:44.053Z,6.50
2017-11-11T16:30:11.626Z,6.50
2017-11-11T16:32:39.202Z,6.50
2017-11-11T16:35:06.786Z,6.50
2017-11-11T16:37:35.105Z,6.50
2017-11-11T16:40:02.662Z,6.50
2017-11-11T16:42:30.232Z,6.50
2017-11-11T16:44:57.793Z,6.50
2017-11-11T16:47:25.407Z,6.50
2017-11-11T16:49:53.754Z,6.50
2017-11-11T16:52:21.321Z,6.50
2017-11-11T16:54:48.939Z,6.50
2017-11-11T16:57:16.507Z,6.50
2017-11-11T16:59:44.071Z,6.50
2017-11-11T17:02:11.636Z,6.50
2017-11-11T17:04:39.176Z,6.50
2017-11-11T17:07:06.777Z,6.50
2017-11-11T17:09:34.341Z,6.50
2017-11-11T17:12:01.900Z,6.50
2017-11-11T17:14:29.476Z,6.50
2017-11-11T17:16:57.799Z,6.50
2017-11-11T17:19:25.422Z,6.50
2017-11-11T17:21:53.751Z,6.60
2017-11-11T17:24:21.333Z,6.60
2017-11-11T17:26:48.912Z,6.60
2017-11-11T17:29:17.243Z,6.60
2017-11-11T17:31:44.798Z,6.60
2017-11-11T17:34:12.372Z,6.60
2017-11-11T17:36:39.944Z,6.60
2017-11-11T17:39:07.545Z,6.60
2017-11-11T17:41:35.114Z,6.60
2017-11-11T17:44:02.674Z,6.60
2017-11-11T17:46:30.262Z,6.60
2017-11-11T17:48:57.843Z,6.60
2017-11-11T17:51:25.418Z,6.70
2017-11-11T17:53:53.008Z,6.70
2017-11-11T17:56:20.572Z,6.70
2017-11-11T17:58:48.117Z,6.70
2017-11-11T18:01:16.459Z,6.70
2017-11-11T18:03:44.040Z,6.70
2017-11-11T18:06:12.420Z,6.70
2017-11-11T18:08:40.738Z,6.70
2017-11-11T18:11:08.316Z,6.70
2017-11-11T18:13:35.923Z,6.70
2017-11-11T18:16:04.290Z,6.80
2017-11-11T18:18:32.654Z,6.80
2017-11-11T18:21:00.204Z,6.80
2017-11-11T18:23:27.763Z,6.80
2017-11-11T18:25:55.328Z,6.80
2017-11-11T18:28:22.888Z,6.90
2017-11-11T18:30:50.457Z,6.90
2017-11-11T18:33:18.002Z,6.90
2017-11-11T18:35:45.558Z,6.90
2017-11-11T18:38:13.157Z,7.00
2017-11-11T18:40:40.718Z,7.00
2017-11-11T18:43:09.023Z,7.10
2017-11-11T18:45:36.634Z,7.10
2017-11-11T18:48:04.185Z,7.10
2017-11-11T18:50:31.721Z,7.10
2017-11-11T18:52:59.318Z,7.20
2017-11-11T18:55:26.888Z,7.20
2017-11-11T18:57:55.204Z,7.20
2017-11-11T19:00:22.818Z,7.20
2017-11-11T19:02:51.153Z,7.30
2017-11-11T19:05:18.693Z,7.30
2017-11-11T19:07:46.264Z,7.30
2017-11-11T19:10:13.818Z,7.30
2017-11-11T19:12:41.392Z,7.40
2017-11-11T19:15:08.955Z,7.40
2017-11-11T19:17:36.518Z,7.40
2017-11-11T19:20:04.110Z,7.40
2017-11-11T19:22:31.657Z,7.40
2017-11-11T19:24:59.214Z,7.40
2017-11-11T19:27:26.794Z,7.40
2017-11-11T19:29:55.178Z,7.40
2017-11-11T19:32:23.529Z,7.50
2017-11-11T19:34:51.074Z,7.50
2017-11-11T19:37:18.628Z,7.50
2017-11-11T19:39:46.200Z,7.50
2017-11-11T19:42:13.745Z,7.50
2017-11-11T19:44:41.355Z,7.50
2017-11-11T19:47:09.693Z,7.50
2017-11-11T19:49:37.256Z,7.50
2017-11-11T19:52:04.871Z,7.50
2017-11-11T19:54:32.430Z,7.50
2017-11-11T19:57:00.024Z,7.50
2017-11-11T19:59:27.601Z,7.50
2017-11-11T20:01:55.157Z,7.50
2017-11-11T20:04:22.767Z,7.50
2017-11-11T20:06:50.321Z,7.60
2017-11-11T20:09:18.642Z,7.50
2017-11-11T20:11:46.986Z,7.50
2017-11-11T20:14:14.578Z,7.60
2017-11-11T20:16:43.672Z,7.60
2017-11-11T20:19:11.245Z,7.60
2017-11-11T20:21:38.793Z,7.60
2017-11-11T20:24:06.377Z,7.60
2017-11-11T20:26:34.118Z,7.60
2017-11-11T20:29:01.697Z,7.60
2017-11-11T20:31:29.291Z,7.50
2017-11-11T20:33:57.629Z,7.60
2017-11-11T20:36:25.220Z,7.60
2017-11-11T20:38:53.616Z,7.60
2017-11-11T20:41:21.193Z,7.50
2017-11-11T20:43:48.799Z,7.50
2017-11-11T20:46:16.345Z,7.50
2017-11-11T20:48:43.903Z,7.60
2017-11-11T20:51:11.482Z,7.50
2017-11-11T20:53:39.045Z,7.50
2017-11-11T20:56:06.663Z,7.50
2017-11-11T20:58:34.227Z,7.60
2017-11-11T21:01:01.769Z,7.60
2017-11-11T21:03:29.423Z,7.60
2017-11-11T21:05:56.986Z,7.60
2017-11-11T21:08:24.559Z,7.60
2017-11-11T21:10:52.166Z,7.60
2017-11-11T21:13:19.748Z,7.60
2017-11-11T21:15:48.068Z,7.60
2017-11-11T21:18:15.660Z,7.50
2017-11-11T21:20:43.375Z,7.50
2017-11-11T21:23:10.966Z,7.60
2017-11-11T21:25:38.552Z,7.60
2017-11-11T21:28:06.245Z,7.60
2017-11-11T21:30:33.990Z,7.60
2017-11-11T21:33:02.328Z,7.60
2017-11-11T21:35:29.887Z,7.60
2017-11-11T21:37:58.234Z,7.60
2017-11-11T21:40:25.797Z,7.60
2017-11-11T21:42:53.399Z,7.60
2017-11-11T21:45:20.942Z,7.60
2017-11-11T21:47:48.522Z,7.60
2017-11-11T21:50:16.894Z,7.60
2017-11-11T21:52:44.442Z,7.60
2017-11-11T21:55:12.759Z,7.60
2017-11-11T21:57:41.155Z,7.60
2017-11-11T22:00:08.696Z,7.60
2017-11-11T22:02:37.026Z,7.60
2017-11-11T22:05:04.605Z,7.60
2017-11-11T22:07:32.167Z,7.70
2017-11-11T22:09:59.721Z,7.70
2017-11-11T22:12:27.306Z,7.70
2017-11-11T22:14:55.635Z,7.70
2017-11-11T22:17:23.186Z,7.70
2017-11-11T22:19:50.779Z,7.70
2017-11-11T22:22:18.324Z,7.70
2017-11-11T22:24:45.902Z,7.70
2017-11-11T22:27:13.511Z,7.70
2017-11-11T22:29:41.096Z,7.70
2017-11-11T22:32:08.679Z,7.70
2017-11-11T22:34:36.274Z,7.70
2017-11-11T22:37:04.641Z,7.70
2017-11-11T22:39:32.956Z,7.70
2017-11-11T22:42:00.509Z,7.70
2017-11-11T22:44:28.101Z,7.70
2017-11-11T22:46:55.646Z,7.70
2017-11-11T22:49:23.214Z,7.70
2017-11-11T22:51:50.795Z,7.70
2017-11-11T22:54:18.349Z,7.70
2017-11-11T22:56:45.897Z,7.70
2017-11-11T22:59:13.477Z,7.70
2017-11-11T23:01:41.040Z,7.70
2017-11-11T23:04:08.599Z,7.70
2017-11-11T23:06:36.177Z,7.70
2017-11-11T23:09:04.549Z,7.70
2017-11-11T23:11:32.107Z,7.80
2017-11-11T23:13:59.700Z,7.80
2017-11-11T23:16:27.277Z,7.80
2017-11-11T23:18:54.820Z,7.80
2017-11-11T23:21:22.420Z,7.80
2017-11-11T23:23:50.006Z,7.80
2017-11-11T23:26:17.548Z,7.90
2017-11-11T23:28:45.140Z,7.90
2017-11-11T23:31:13.471Z,7.90
2017-11-11T23:33:41.033Z,7.90
2017-11-11T23:36:08.631Z,7.90
2017-11-11T23:38:36.979Z,7.90
2017-11-11T23:41:04.522Z,7.90
2017-11-11T23:43:32.106Z,7.90
2017-11-11T23:45:59.656Z,7.90
2017-11-11T23:48:27.219Z,7.90
2017-11-11T23:50:54.834Z,7.90
2017-11-11T23:53:22.391Z,7.90
2017-11-11T23:55:49.963Z,7.90
2017-11-11T23:58:17.564Z,7.90
